Time;durP1;ratioP1;P1;durP2;ratioP2;P2;SDS_P1;SDS_P2;PMS_P1;PMS_P2;Temp;Humidity;BMP_temperature;BMP_pressure;BME280_temperature;BME280_humidity;BME280_pressure;Samples;Min_cycle;Max_cycle;Signal;HPM_P1;HPM_P2
2023/03/02 00:00:14;;;;;;;27.73;21.10;;;8.30;99.90;;;;;;4954564;29;20110;-49
2023/03/02 00:02:39;;;;;;;26.88;20.50;;;8.30;99.90;;;;;;4954626;29;20135;-47
2023/03/02 00:05:07;;;;;;;29.53;23.33;;;8.30;99.90;;;;;;4954305;29;20509;-47
2023/03/02 00:07:34;;;;;;;32.67;23.80;;;8.30;99.90;;;;;;4937034;29;20055;-48
2023/03/02 00:10:00;;;;;;;33.37;23.83;;;8.40;99.90;;;;;;4954865;29;20058;-51
2023/03/02 00:12:27;;;;;;;30.40;23.50;;;8.40;99.90;;;;;;4954407;29;20556;-52
2023/03/02 00:14:53;;;;;;;34.30;24.27;;;8.40;99.90;;;;;;4954618;29;20035;-50
2023/03/02 00:17:26;;;;;;;35.43;25.83;;;8.40;99.90;;;;;;4954387;29;20465;-51
2023/03/02 00:23:26;;;;;;;38.53;26.93;;;8.40;99.90;;;;;;4949259;29;20417;-54
2023/03/02 00:25:52;;;;;;;41.87;29.60;;;8.40;99.90;;;;;;4936127;29;20047;-49
2023/03/02 00:28:18;;;;;;;41.53;29.50;;;8.30;99.90;;;;;;4954613;29;20102;-49
2023/03/02 00:30:44;;;;;;;38.63;27.17;;;8.30;99.90;;;;;;4954357;29;20032;-51
2023/03/02 00:33:09;;;;;;;41.13;30.20;;;8.10;99.90;;;;;;4954637;29;20124;-52
2023/03/02 00:35:39;;;;;;;36.90;26.90;;;8.10;99.90;;;;;;4954361;29;20031;-53
2023/03/02 00:38:06;;;;;;;40.37;28.93;;;8.20;99.90;;;;;;4954247;29;20032;-52
2023/03/02 00:40:32;;;;;;;40.00;28.03;;;8.20;99.90;;;;;;4954331;29;20036;-53
2023/03/02 00:42:57;;;;;;;39.03;28.43;;;8.30;99.90;;;;;;4956531;28;20490;-50
2023/03/02 00:45:23;;;;;;;39.43;27.57;;;8.20;99.90;;;;;;4957737;29;20039;-50
2023/03/02 00:47:49;;;;;;;41.83;30.07;;;8.30;99.90;;;;;;4958082;29;20031;-47
2023/03/02 00:50:14;;;;;;;38.23;27.50;;;8.30;99.90;;;;;;4957966;29;20023;-49
2023/03/02 00:52:40;;;;;;;37.07;28.90;;;8.40;99.90;;;;;;4940529;29;20035;-48
2023/03/02 00:55:06;;;;;;;39.07;28.27;;;8.40;99.90;;;;;;4957632;29;20508;-48
2023/03/02 00:57:32;;;;;;;40.27;29.07;;;8.40;99.90;;;;;;4957617;29;20023;-49
2023/03/02 00:59:58;;;;;;;38.90;27.17;;;8.50;99.90;;;;;;4957844;29;20034;-47
2023/03/02 01:02:24;;;;;;;41.73;29.60;;;8.40;99.90;;;;;;4957557;29;20023;-52
2023/03/02 01:04:51;;;;;;;39.53;27.63;;;8.40;99.90;;;;;;4939998;29;20063;-52
2023/03/02 01:07:19;;;;;;;42.07;29.97;;;8.40;99.90;;;;;;4957433;29;20016;-51
2023/03/02 01:09:47;;;;;;;42.73;30.27;;;8.40;99.90;;;;;;4957390;29;20027;-47
2023/03/02 01:12:13;;;;;;;39.73;28.80;;;8.40;99.90;;;;;;4940104;29;20422;-53
2023/03/02 01:14:45;;;;;;;41.57;28.93;;;8.40;99.90;;;;;;4957206;29;20046;-47
2023/03/02 01:17:12;;;;;;;44.27;30.20;;;8.40;99.90;;;;;;4956505;29;20491;-53
2023/03/02 01:19:38;;;;;;;39.43;29.00;;;8.50;99.90;;;;;;4957315;29;20015;-48
2023/03/02 01:22:05;;;;;;;42.70;29.73;;;8.50;99.90;;;;;;4957263;29;20110;-52
2023/03/02 01:24:31;;;;;;;39.53;30.00;;;8.50;53.10;;;;;;4957409;29;20047;-48
2023/03/02 01:26:56;;;;;;;42.13;29.80;;;8.60;18.70;;;;;;4957130;29;20393;-48
2023/03/02 01:29:22;;;;;;;45.70;30.57;;;8.60;1.00;;;;;;4954599;29;20031;-49
2023/03/02 01:31:48;;;;;;;42.07;28.80;;;8.60;1.00;;;;;;4939897;29;20106;-49
2023/03/02 01:34:13;;;;;;;42.17;30.30;;;8.60;1.00;;;;;;4939539;29;20035;-50
2023/03/02 01:36:39;;;;;;;42.27;29.93;;;8.60;1.00;;;;;;4944511;29;20031;-51
2023/03/02 01:39:05;;;;;;;42.00;30.00;;;8.60;1.00;;;;;;4956678;29;20079;-50
2023/03/02 01:41:31;;;;;;;45.13;31.50;;;8.60;1.00;;;;;;4939465;29;20117;-50
2023/03/02 01:43:57;;;;;;;38.47;27.97;;;8.60;1.00;;;;;;4940068;29;20047;-53
2023/03/02 01:46:28;;;;;;;42.50;29.33;;;8.60;1.00;;;;;;4957088;29;20031;-50
2023/03/02 01:48:59;;;;;;;43.77;29.83;;;8.60;1.00;;;;;;4956806;29;20028;-52
2023/03/02 01:51:28;;;;;;;40.33;28.83;;;8.60;1.00;;;;;;4956595;29;20023;-49
2023/03/02 01:54:00;;;;;;;41.77;28.93;;;8.60;1.00;;;;;;4938560;29;20027;-53
2023/03/02 01:56:30;;;;;;;41.63;29.93;;;8.60;1.00;;;;;;4939387;29;20058;-50
2023/03/02 01:59:02;;;;;;;41.30;28.33;;;8.60;1.00;;;;;;4956829;29;20032;-52
2023/03/02 02:01:35;;;;;;;41.47;30.33;;;8.60;1.00;;;;;;4939319;29;20055;-49
2023/03/02 02:04:01;;;;;;;40.93;29.40;;;8.60;1.00;;;;;;4956246;29;20078;-51
2023/03/02 02:07:07;;;;;;;41.30;29.63;;;8.60;1.00;;;;;;4956413;29;20020;-50
2023/03/02 02:09:40;;;;;;;42.25;28.83;;;8.60;1.00;;;;;;4872636;29;20044;-47
2023/03/02 02:12:11;;;;;;;40.53;29.50;;;8.60;1.00;;;;;;4847953;29;20139;-49
2023/03/02 02:14:37;;;;;;;42.87;29.67;;;8.70;1.00;;;;;;4860051;29;20049;-49
2023/03/02 02:17:02;;;;;;;39.27;27.90;;;8.60;1.00;;;;;;4859781;29;20112;-50
2023/03/02 02:20:07;;;;;;;40.73;29.47;;;8.50;1.00;;;;;;4859500;29;20034;-54
2023/03/02 02:22:52;;;;;;;39.97;29.52;;;8.60;1.00;;;;;;4848796;29;20473;-52
2023/03/02 02:26:00;;;;;;;43.40;30.47;;;8.60;1.00;;;;;;4857308;29;20412;-50
2023/03/02 02:28:39;;;;;;;42.37;29.63;;;8.50;1.00;;;;;;4855208;29;20045;-52
2023/03/02 02:31:25;;;;;;;41.53;29.93;;;8.60;1.00;;;;;;4858926;29;20526;-50
2023/03/02 02:33:54;;;;;;;;;;;8.50;1.00;;;;;;4859264;29;20045;-52
2023/03/02 02:36:24;;;;;;;41.67;29.77;;;8.50;1.00;;;;;;4858743;29;19941;-49
2023/03/02 02:38:54;;;;;;;42.47;29.00;;;8.60;1.00;;;;;;4858786;29;20048;-54
2023/03/02 02:41:31;;;;;;;39.17;29.07;;;8.60;1.00;;;;;;4948972;29;20520;-50
2023/03/02 02:43:57;;;;;;;38.40;28.00;;;8.50;1.00;;;;;;4953033;29;20042;-52
2023/03/02 02:46:24;;;;;;;39.47;28.60;;;8.60;1.00;;;;;;4954267;29;20102;-50
2023/03/02 02:48:50;;;;;;;36.93;27.07;;;8.60;1.00;;;;;;4955026;29;20471;-47
2023/03/02 02:51:22;;;;;;;40.40;29.67;;;8.60;1.00;;;;;;4937654;29;20055;-47
2023/03/02 02:54:01;;;;;;;37.67;27.63;;;8.50;1.00;;;;;;4937681;29;20082;-48
2023/03/02 02:56:30;;;;;;;34.07;25.63;;;8.40;1.00;;;;;;4954875;29;20021;-46
2023/03/02 02:59:01;;;;;;;38.17;27.60;;;8.40;1.00;;;;;;4954919;29;20031;-48
2023/03/02 03:01:26;;;;;;;38.00;27.43;;;8.40;1.00;;;;;;4954738;29;20027;-47
2023/03/02 03:03:56;;;;;;;39.80;27.40;;;8.40;1.00;;;;;;4954281;29;20083;-51
2023/03/02 03:06:29;;;;;;;39.37;27.60;;;8.40;1.00;;;;;;4954796;28;20034;-51
2023/03/02 03:08:56;;;;;;;37.27;27.07;;;8.40;1.00;;;;;;4954729;29;20039;-50
2023/03/02 03:14:52;;;;;;;35.53;26.10;;;8.40;1.00;;;;;;4951894;29;20143;-51
2023/03/02 03:17:18;;;;;;;40.17;28.53;;;8.30;1.00;;;;;;4955199;29;20553;-48
2023/03/02 03:19:45;;;;;;;35.10;25.83;;;8.40;1.00;;;;;;4955133;29;20027;-47
2023/03/02 03:22:12;;;;;;;35.70;26.13;;;8.40;1.00;;;;;;4955325;29;20046;-46
2023/03/02 03:24:40;;;;;;;36.50;26.37;;;8.40;1.00;;;;;;4937924;29;20035;-47
2023/03/02 03:27:08;;;;;;;37.37;26.60;;;8.40;1.00;;;;;;4951246;29;20397;-48
2023/03/02 03:29:35;;;;;;;38.43;27.30;;;8.30;1.00;;;;;;4955035;29;20023;-47
2023/03/02 03:32:02;;;;;;;35.90;25.60;;;8.40;1.00;;;;;;4941735;29;20039;-48
2023/03/02 03:34:29;;;;;;;37.70;25.93;;;8.40;1.00;;;;;;4955087;29;20373;-47
2023/03/02 03:37:00;;;;;;;37.10;26.30;;;8.40;1.00;;;;;;4955264;29;20429;-50
2023/03/02 03:39:30;;;;;;;38.00;26.27;;;8.30;1.00;;;;;;4954946;29;20385;-49
2023/03/02 03:41:56;;;;;;;35.23;25.13;;;8.30;1.00;;;;;;4955294;29;20114;-53
2023/03/02 03:44:22;;;;;;;36.87;26.13;;;8.30;1.00;;;;;;4937600;29;20174;-51
2023/03/02 03:46:48;;;;;;;33.53;24.37;;;8.40;1.00;;;;;;4945351;29;20028;-46
2023/03/02 03:49:14;;;;;;;35.03;25.90;;;8.30;1.00;;;;;;4951146;29;20063;-51
2023/03/02 03:51:40;;;;;;;35.33;25.77;;;8.40;1.00;;;;;;4954672;29;20117;-47
2023/03/02 03:54:07;;;;;;;35.10;25.20;;;8.50;1.00;;;;;;4954883;29;20102;-47
2023/03/02 03:56:36;;;;;;;36.73;26.13;;;8.50;1.00;;;;;;4937597;29;20428;-47
2023/03/02 03:59:06;;;;;;;41.57;28.00;;;8.50;1.00;;;;;;4942332;29;20068;-47
2023/03/02 04:01:36;;;;;;;36.93;26.93;;;8.50;1.00;;;;;;4936986;29;20031;-47
2023/03/02 04:04:05;;;;;;;35.70;24.63;;;8.50;1.00;;;;;;4954970;29;20496;-52
2023/03/02 04:06:31;;;;;;;39.23;27.60;;;8.50;1.00;;;;;;4954818;29;20023;-49
2023/03/02 04:09:03;;;;;;;41.53;27.60;;;8.30;1.00;;;;;;4954824;29;20497;-51
2023/03/02 04:11:30;;;;;;;39.00;26.53;;;8.40;1.00;;;;;;4954550;29;20425;-49
2023/03/02 04:13:56;;;;;;;37.03;26.70;;;8.30;1.00;;;;;;4954701;29;20031;-48
2023/03/02 04:16:21;;;;;;;37.57;26.70;;;8.40;1.00;;;;;;4954464;28;20119;-47
2023/03/02 04:18:47;;;;;;;39.90;27.30;;;8.50;1.00;;;;;;4951182;29;20028;-49
2023/03/02 04:21:13;;;;;;;36.80;27.53;;;8.50;1.00;;;;;;4952210;29;20063;-49
2023/03/02 04:23:38;;;;;;;37.70;26.47;;;8.50;1.00;;;;;;4958279;29;20020;-49
2023/03/02 04:26:04;;;;;;;36.63;25.93;;;8.50;1.00;;;;;;4941051;29;20043;-50
2023/03/02 04:28:31;;;;;;;35.43;26.33;;;8.60;1.00;;;;;;4958009;29;20093;-48
2023/03/02 04:30:57;;;;;;;38.63;27.23;;;8.60;1.00;;;;;;4958308;29;20035;-50
2023/03/02 04:33:22;;;;;;;34.10;24.60;;;8.50;1.00;;;;;;4958179;29;20102;-49
2023/03/02 04:35:48;;;;;;;38.27;26.93;;;8.50;1.00;;;;;;4958036;29;20123;-51
2023/03/02 04:38:14;;;;;;;37.83;26.27;;;8.50;1.00;;;;;;4958265;29;20027;-50
2023/03/02 04:40:39;;;;;;;38.00;26.27;;;8.60;1.00;;;;;;4957753;29;20117;-49
2023/03/02 04:43:05;;;;;;;36.27;26.37;;;8.50;1.00;;;;;;4957692;29;20429;-51
2023/03/02 04:45:31;;;;;;;38.80;27.63;;;8.40;1.00;;;;;;4944751;29;20056;-46
2023/03/02 04:47:57;;;;;;;39.73;27.60;;;8.50;1.00;;;;;;4957551;29;20440;-46
2023/03/02 04:50:23;;;;;;;39.17;27.93;;;8.50;1.00;;;;;;4957627;29;20023;-48
2023/03/02 04:52:52;;;;;;;38.07;26.40;;;8.50;1.00;;;;;;4958012;29;20031;-50
2023/03/02 04:55:23;;;;;;;38.23;26.13;;;8.50;1.00;;;;;;4957901;29;20039;-51
2023/03/02 04:57:49;;;;;;;38.03;26.90;;;8.50;1.00;;;;;;4958012;29;20428;-52
2023/03/02 05:00:16;;;;;;;39.13;28.50;;;8.50;1.00;;;;;;4957644;29;20031;-51
2023/03/02 05:02:42;;;;;;;38.37;28.10;;;8.50;1.00;;;;;;4943796;29;20036;-49
2023/03/02 05:05:18;;;;;;;40.00;28.50;;;8.40;1.00;;;;;;4957798;29;20114;-49
2023/03/02 05:07:44;;;;;;;41.63;30.17;;;8.50;1.00;;;;;;4956824;29;20027;-53
2023/03/02 05:10:11;;;;;;;39.73;28.87;;;8.50;1.00;;;;;;4957387;29;20042;-46
2023/03/02 05:12:56;;;;;;;40.93;28.77;;;8.50;1.00;;;;;;4940197;29;20023;-50
2023/03/02 05:15:32;;;;;;;40.63;28.80;;;8.40;1.00;;;;;;4957605;29;20381;-48
2023/03/02 05:17:58;;;;;;;40.77;28.77;;;8.40;1.00;;;;;;4957289;29;20027;-49
2023/03/02 05:20:26;;;;;;;38.30;27.97;;;8.40;1.00;;;;;;4957346;29;20106;-46
2023/03/02 05:22:54;;;;;;;41.50;28.13;;;8.40;1.00;;;;;;4957247;29;20034;-51
2023/03/02 05:25:20;;;;;;;40.80;29.23;;;8.40;1.00;;;;;;4939788;29;20039;-47
2023/03/02 05:27:46;;;;;;;39.97;28.87;;;8.40;1.00;;;;;;4956832;28;20023;-51
2023/03/02 05:30:12;;;;;;;42.80;29.93;;;8.40;1.00;;;;;;4956418;29;20362;-50
2023/03/02 05:32:38;;;;;;;38.97;27.90;;;8.20;1.00;;;;;;4956936;29;20067;-46
2023/03/02 05:38:26;;;;;;;43.77;30.17;;;8.40;1.00;;;;;;4951745;29;20027;-51
2023/03/02 05:40:52;;;;;;;42.27;28.20;;;8.40;1.00;;;;;;4956784;29;20035;-50
2023/03/02 05:43:20;;;;;;;44.23;29.80;;;8.30;1.00;;;;;;4956943;29;20385;-46
2023/03/02 05:45:46;;;;;;;39.97;29.20;;;8.40;1.00;;;;;;4939518;29;20031;-47
2023/03/02 05:48:12;;;;;;;48.00;31.30;;;8.40;1.00;;;;;;4957076;29;20358;-48
2023/03/02 05:50:38;;;;;;;39.17;28.13;;;8.40;1.00;;;;;;4957109;29;20031;-49
2023/03/02 05:53:04;;;;;;;37.73;27.73;;;8.40;1.00;;;;;;4956625;29;20032;-48
2023/03/02 05:55:30;;;;;;;42.20;27.83;;;8.40;1.00;;;;;;4956585;29;20031;-48
2023/03/02 05:57:56;;;;;;;43.23;29.87;;;8.40;1.00;;;;;;4956567;29;20035;-46
2023/03/02 06:00:22;;;;;;;38.37;27.43;;;8.40;1.00;;;;;;4956665;29;20182;-47
2023/03/02 06:02:48;;;;;;;39.30;28.23;;;8.40;1.00;;;;;;4956197;29;20031;-49
2023/03/02 06:05:17;;;;;;;43.30;29.57;;;8.40;1.00;;;;;;4956801;29;20115;-49
2023/03/02 06:07:43;;;;;;;41.50;28.63;;;8.50;1.00;;;;;;4939203;29;20489;-46
2023/03/02 06:10:10;;;;;;;43.53;28.70;;;8.50;1.00;;;;;;4956693;29;20405;-49
2023/03/02 06:12:36;;;;;;;43.90;28.80;;;8.50;1.00;;;;;;4956443;29;20082;-48
2023/03/02 06:15:04;;;;;;;42.60;29.30;;;8.50;1.00;;;;;;4956192;29;20026;-46
2023/03/02 06:17:29;;;;;;;43.17;27.97;;;8.50;1.00;;;;;;4939342;29;20471;-47
2023/03/02 06:19:55;;;;;;;43.33;30.17;;;8.50;1.00;;;;;;4956052;29;20050;-49
2023/03/02 06:22:21;;;;;;;45.90;30.00;;;8.60;1.00;;;;;;4956228;29;20027;-46
2023/03/02 06:24:46;;;;;;;43.63;30.87;;;8.60;1.00;;;;;;4956046;29;20035;-49
2023/03/02 06:27:13;;;;;;;43.90;30.33;;;8.60;1.00;;;;;;4956737;29;20034;-48
2023/03/02 06:29:38;;;;;;;43.70;31.03;;;8.60;1.00;;;;;;4956336;29;20035;-46
2023/03/02 06:32:04;;;;;;;42.33;29.20;;;8.60;1.00;;;;;;4956196;29;20027;-46
2023/03/02 06:34:30;;;;;;;43.60;30.93;;;8.70;1.00;;;;;;4955936;29;20034;-46
2023/03/02 06:36:56;;;;;;;41.77;28.67;;;8.70;1.00;;;;;;4956219;29;20059;-46
2023/03/02 06:39:22;;;;;;;41.40;29.03;;;8.70;1.00;;;;;;4955774;28;20484;-49
2023/03/02 06:41:48;;;;;;;42.20;29.33;;;8.70;1.00;;;;;;4955816;29;20027;-47
2023/03/02 06:44:15;;;;;;;44.47;29.77;;;8.60;1.00;;;;;;4938411;29;20034;-46
2023/03/02 06:46:42;;;;;;;44.17;30.53;;;8.60;1.00;;;;;;4946731;29;20028;-48
2023/03/02 06:49:09;;;;;;;46.63;30.07;;;8.60;1.00;;;;;;4951149;29;20039;-46
2023/03/02 06:51:35;;;;;;;45.43;30.37;;;8.50;1.00;;;;;;4955677;29;20432;-47
2023/03/02 06:54:01;;;;;;;42.23;29.33;;;8.60;1.00;;;;;;4938511;29;20028;-46
2023/03/02 06:56:27;;;;;;;40.73;29.33;;;8.70;1.00;;;;;;4955581;29;20055;-46
2023/03/02 06:58:53;;;;;;;45.83;29.87;;;8.80;1.00;;;;;;4955522;29;20019;-46
2023/03/02 07:01:19;;;;;;;42.83;30.03;;;8.70;1.00;;;;;;4955256;29;20030;-49
2023/03/02 07:03:45;;;;;;;48.57;30.00;;;8.50;1.00;;;;;;4954694;29;20112;-46
2023/03/02 07:06:13;;;;;;;42.63;29.27;;;8.50;1.00;;;;;;4953583;29;20062;-47
2023/03/02 07:08:40;;;;;;;41.83;30.33;;;8.60;1.00;;;;;;4936430;29;20031;-46
2023/03/02 07:11:11;;;;;;;43.53;31.77;;;8.80;1.00;;;;;;4949646;29;20039;-46
2023/03/02 07:13:40;;;;;;;45.73;30.43;;;8.80;1.00;;;;;;4955438;29;20039;-50
2023/03/02 07:16:15;;;;;;;47.97;31.53;;;8.90;1.00;;;;;;4955501;29;20019;-45
2023/03/02 07:18:40;;;;;;;45.50;30.87;;;9.00;1.00;;;;;;4925412;29;20114;-46
2023/03/02 07:21:06;;;;;;;46.30;30.40;;;9.00;1.00;;;;;;4955413;29;20131;-48
2023/03/02 07:23:34;;;;;;;44.07;30.30;;;9.00;1.00;;;;;;4954294;29;20101;-45
2023/03/02 07:25:59;;;;;;;44.90;30.67;;;9.10;1.00;;;;;;4937885;29;20046;-51
2023/03/02 07:28:26;;;;;;;43.53;30.87;;;9.20;1.00;;;;;;4955168;29;20024;-53
2023/03/02 07:30:52;;;;;;;46.30;30.60;;;9.30;1.00;;;;;;4937809;29;20031;-52
2023/03/02 07:33:19;;;;;;;43.37;30.70;;;9.30;1.00;;;;;;4955201;29;20031;-50
2023/03/02 07:35:45;;;;;;;47.57;30.77;;;9.10;1.00;;;;;;4954932;29;20074;-51
2023/03/02 07:38:11;;;;;;;47.93;32.33;;;9.30;1.00;;;;;;4955258;29;20031;-52
2023/03/02 07:40:41;;;;;;;49.30;30.20;;;9.30;1.00;;;;;;4954622;29;20027;-47
2023/03/02 07:43:07;;;;;;;45.37;31.30;;;9.40;1.00;;;;;;4942035;29;20110;-49
2023/03/02 07:45:33;;;;;;;43.17;29.03;;;9.30;1.00;;;;;;4954728;29;20134;-49
2023/03/02 07:47:58;;;;;;;47.97;30.93;;;9.40;1.00;;;;;;4954472;29;20035;-48
2023/03/02 07:50:24;;;;;;;46.33;31.40;;;9.40;1.00;;;;;;4955073;29;20031;-50
2023/03/02 07:52:50;;;;;;;44.03;30.57;;;9.30;1.00;;;;;;4953970;29;20027;-52
2023/03/02 07:55:15;;;;;;;44.90;31.23;;;9.20;1.00;;;;;;4954815;29;20461;-50
2023/03/02 07:57:41;;;;;;;45.80;31.23;;;9.30;1.00;;;;;;4954536;29;20390;-49
2023/03/02 08:00:08;;;;;;;48.93;32.00;;;9.20;1.00;;;;;;4954591;29;20031;-50
2023/03/02 08:02:33;;;;;;;47.90;32.00;;;9.30;1.00;;;;;;4954946;29;20074;-48
2023/03/02 08:04:59;;;;;;;49.87;32.33;;;9.40;1.00;;;;;;4954205;29;20501;-46
2023/03/02 08:07:24;;;;;;;45.87;29.93;;;9.40;1.00;;;;;;4937437;29;20027;-49
2023/03/02 08:09:50;;;;;;;45.73;30.77;;;9.30;1.00;;;;;;4954449;29;20378;-47
2023/03/02 08:12:16;;;;;;;45.93;30.67;;;9.50;1.00;;;;;;4937251;29;20027;-47
2023/03/02 08:14:41;;;;;;;44.93;30.53;;;9.50;1.00;;;;;;4953598;29;20074;-53
2023/03/02 08:17:07;;;;;;;47.53;30.80;;;9.60;1.00;;;;;;4937563;29;20385;-53
2023/03/02 08:19:33;;;;;;;40.43;29.77;;;9.50;1.00;;;;;;4937274;29;20035;-50
2023/03/02 08:22:00;;;;;;;42.33;29.47;;;9.60;1.00;;;;;;4937229;29;20023;-50
2023/03/02 08:24:25;;;;;;;43.63;31.43;;;9.80;1.00;;;;;;4954381;29;20027;-51
2023/03/02 08:26:51;;;;;;;52.07;34.17;;;9.90;1.00;;;;;;4954595;29;20102;-49
2023/03/02 08:29:17;;;;;;;45.53;30.50;;;10.00;1.00;;;;;;4954413;29;20082;-50
2023/03/02 08:31:43;;;;;;;45.87;30.87;;;9.90;1.00;;;;;;4937089;29;20038;-48
2023/03/02 08:34:09;;;;;;;45.10;30.67;;;9.90;1.00;;;;;;4954457;29;20024;-48
2023/03/02 08:36:34;;;;;;;45.77;29.80;;;9.90;1.00;;;;;;4952979;29;20027;-49
2023/03/02 08:39:00;;;;;;;43.63;28.90;;;9.90;1.00;;;;;;4954528;29;20027;-49
2023/03/02 08:41:26;;;;;;;46.13;31.47;;;10.00;1.00;;;;;;4953345;29;20071;-55
2023/03/02 08:43:54;;;;;;;43.77;30.50;;;10.00;1.00;;;;;;4954120;29;20023;-45
2023/03/02 08:46:21;;;;;;;46.43;29.70;;;10.00;1.00;;;;;;4954524;29;20043;-50
2023/03/02 08:48:49;;;;;;;44.50;29.97;;;10.10;1.00;;;;;;4954266;29;20032;-50
2023/03/02 08:51:18;;;;;;;46.33;31.13;;;10.10;1.00;;;;;;4954049;29;20019;-49
2023/03/02 08:53:46;;;;;;;44.50;29.70;;;10.00;1.00;;;;;;4937123;29;20062;-49
2023/03/02 08:56:33;;;;;;;46.17;31.23;;;9.90;1.00;;;;;;4954287;29;20039;-51
2023/03/02 08:59:02;;;;;;;44.53;30.50;;;9.90;1.00;;;;;;4951723;29;20030;-51
2023/03/02 09:01:34;;;;;;;44.77;30.60;;;10.10;1.00;;;;;;4950620;29;20082;-45
2023/03/02 09:04:00;;;;;;;48.27;30.37;;;10.20;1.00;;;;;;4955839;28;20043;-57
2023/03/02 09:06:31;;;;;;;46.43;31.53;;;10.20;1.00;;;;;;4940271;29;20023;-59
2023/03/02 09:08:57;;;;;;;51.60;31.67;;;10.30;1.00;;;;;;4954908;29;20027;-59
2023/03/02 09:11:24;;;;;;;40.95;28.80;;;10.30;1.00;;;;;;4943296;29;20456;-60
2023/03/02 09:13:50;;;;;;;45.28;29.60;;;10.20;1.00;;;;;;4957029;29;20114;-60
2023/03/02 09:16:16;;;;;;;47.58;30.92;;;10.10;1.00;;;;;;4956417;29;20118;-60
2023/03/02 09:18:41;;;;;;;41.90;28.43;;;10.20;1.00;;;;;;4957165;29;20105;-60
2023/03/02 09:21:07;;;;;;;41.70;30.17;;;10.20;1.00;;;;;;4938931;29;20576;-60
2023/03/02 09:23:35;;;;;;;45.13;28.70;;;10.20;1.00;;;;;;4949923;29;20033;-60
2023/03/02 09:26:02;;;;;;;42.17;30.07;;;10.30;1.00;;;;;;4956253;29;20043;-60
2023/03/02 09:28:28;;;;;;;43.10;29.73;;;10.40;1.00;;;;;;4955383;29;20023;-60
2023/03/02 09:30:57;;;;;;;40.03;27.95;;;10.40;1.00;;;;;;4956582;29;20035;-60
2023/03/02 09:33:23;;;;;;;46.00;29.23;;;10.30;1.00;;;;;;4957244;29;20119;-60
2023/03/02 09:35:49;;;;;;;41.73;29.03;;;10.40;1.00;;;;;;4956768;29;20111;-60
2023/03/02 09:38:17;;;;;;;43.00;29.60;;;10.30;1.00;;;;;;4954632;29;20027;-60
2023/03/02 09:40:50;;;;;;;44.10;28.77;;;10.40;1.00;;;;;;4956014;29;20039;-60
2023/03/02 09:43:43;;;;;;;41.55;28.83;;;10.40;1.00;;;;;;4955286;29;20047;-60
2023/03/02 09:46:18;;;;;;;45.13;28.10;;;10.40;1.00;;;;;;4956517;29;20035;-60
2023/03/02 09:49:04;;;;;;;;;;;10.40;1.00;;;;;;4957378;29;20032;-60
2023/03/02 09:51:42;;;;;;;40.88;27.75;;;10.40;1.00;;;;;;4945417;29;19926;-60
2023/03/02 09:54:16;;;;;;;41.60;27.40;;;10.50;1.00;;;;;;4955557;29;20485;-60
2023/03/02 09:56:48;;;;;;;42.33;27.77;;;10.70;1.00;;;;;;4939525;29;20051;-60
2023/03/02 09:59:17;;;;;;;43.05;27.58;;;10.70;1.00;;;;;;4956257;29;20038;-60
2023/03/02 10:02:10;;;;;;;42.30;27.88;;;10.80;1.00;;;;;;4956520;29;20016;-60
2023/03/02 10:04:46;;;;;;;47.25;29.80;;;10.80;1.00;;;;;;4955254;29;20083;-60
2023/03/02 10:07:20;;;;;;;38.88;27.48;;;10.90;1.00;;;;;;4956425;29;20042;-60
2023/03/02 10:09:46;;;;;;;41.10;26.92;;;10.80;1.00;;;;;;4956245;29;20429;-60
2023/03/02 10:12:31;;;;;;;41.75;27.80;;;10.80;1.00;;;;;;4956287;29;20027;-60
2023/03/02 10:15:11;;;;;;;41.30;27.38;;;10.90;1.00;;;;;;4955297;28;20427;-60
2023/03/02 10:17:55;;;;;;;39.50;27.60;;;11.00;1.00;;;;;;4955748;29;20027;-60
2023/03/02 10:20:33;;;;;;;37.70;25.48;;;11.10;1.00;;;;;;4935443;29;20112;-59
2023/03/02 10:23:38;;;;;;;37.33;27.35;;;11.00;1.00;;;;;;4954821;29;20038;-60
2023/03/02 10:26:25;;;;;;;34.72;25.20;;;11.10;1.00;;;;;;4953896;29;20505;-60
2023/03/02 10:29:10;;;;;;;38.60;25.30;;;11.20;1.00;;;;;;4956206;29;20361;-60
2023/03/02 10:31:39;;;;;;;38.63;24.58;;;11.30;1.00;;;;;;4948909;29;20031;-60
2023/03/02 10:34:10;;;;;;;35.65;24.30;;;11.50;1.00;;;;;;4938448;29;20026;-60
2023/03/02 10:36:38;;;;;;;35.75;25.35;;;11.30;1.00;;;;;;4956097;29;20377;-60
2023/03/02 10:39:12;;;;;;;31.38;23.50;;;11.50;1.00;;;;;;4955764;29;20555;-60
2023/03/02 10:41:46;;;;;;;33.50;23.60;;;11.70;1.00;;;;;;4955862;29;20027;-60
2023/03/02 10:44:29;;;;;;;35.50;23.60;;;11.80;1.00;;;;;;4955622;29;20259;-60
2023/03/02 10:46:55;;;;;;;34.15;24.35;;;11.80;1.00;;;;;;4955797;29;20159;-60
2023/03/02 10:49:35;;;;;;;31.20;23.13;;;11.80;1.00;;;;;;4938339;29;20075;-60
2023/03/02 10:52:09;;;;;;;29.40;22.08;;;12.00;1.00;;;;;;4955702;29;20086;-60
2023/03/02 10:54:35;;;;;;;29.67;21.38;;;11.90;1.00;;;;;;4955674;29;20050;-60
2023/03/02 10:57:04;;;;;;;29.85;22.00;;;11.90;1.00;;;;;;4955691;29;20485;-60
2023/03/02 10:59:44;;;;;;;28.38;21.42;;;11.90;1.00;;;;;;4955527;29;20033;-60
2023/03/02 11:02:22;;;;;;;29.15;20.70;;;12.20;1.00;;;;;;4955577;29;20038;-60
2023/03/02 11:05:09;;;;;;;31.20;23.17;;;12.20;1.00;;;;;;4937821;29;20437;-60
2023/03/02 11:07:35;;;;;;;23.75;19.35;;;12.50;1.00;;;;;;4948111;29;20031;-60
2023/03/02 11:10:22;;;;;;;24.77;19.48;;;12.50;1.00;;;;;;4936809;29;20035;-60
2023/03/02 11:12:51;;;;;;;22.90;17.73;;;12.50;1.00;;;;;;4937928;29;20134;-60
2023/03/02 11:15:22;;;;;;;22.00;16.83;;;12.50;1.00;;;;;;4955042;29;20027;-60
2023/03/02 11:18:10;;;;;;;23.60;18.70;;;12.40;1.00;;;;;;4955491;29;20121;-60
2023/03/02 11:20:44;;;;;;;21.88;16.73;;;12.40;1.00;;;;;;4947499;29;20034;-60
2023/03/02 11:23:31;;;;;;;19.20;14.35;;;12.40;1.00;;;;;;4955410;29;20027;-60
2023/03/02 11:26:03;;;;;;;22.83;16.92;;;12.40;1.00;;;;;;4926634;29;20396;-61
2023/03/02 11:28:42;;;;;;;20.08;15.77;;;12.90;1.00;;;;;;4954843;29;20023;-60
2023/03/02 11:31:43;;;;;;;21.23;15.85;;;13.10;1.00;;;;;;4937620;29;20031;-60
2023/03/02 11:34:12;;;;;;;19.75;15.85;;;13.10;1.00;;;;;;4932995;29;20035;-60
2023/03/02 11:36:48;;;;;;;25.35;18.98;;;13.00;1.00;;;;;;4937601;29;20035;-60
2023/03/02 11:39:21;;;;;;;20.42;17.13;;;13.20;1.00;;;;;;4937543;29;20031;-60
2023/03/02 11:41:47;;;;;;;21.30;15.73;;;13.30;1.00;;;;;;4954704;29;20028;-62
2023/03/02 11:44:14;;;;;;;22.50;17.08;;;13.40;1.00;;;;;;4937732;29;20090;-62
2023/03/02 11:46:42;;;;;;;21.17;17.23;;;13.30;1.00;;;;;;4954463;29;20065;-62
2023/03/02 11:49:20;;;;;;;21.88;16.52;;;13.20;1.00;;;;;;4955231;29;20058;-62
2023/03/02 11:51:55;;;;;;;19.08;15.60;;;13.00;1.00;;;;;;4954735;29;20503;-62
2023/03/02 11:54:39;;;;;;;21.30;16.38;;;13.00;1.00;;;;;;4954703;29;20047;-62
2023/03/02 11:57:16;;;;;;;21.63;15.65;;;12.90;1.00;;;;;;4954322;29;20031;-60
2023/03/02 11:59:42;;;;;;;18.67;15.52;;;13.30;1.00;;;;;;4954252;29;20023;-60
2023/03/02 12:02:12;;;;;;;21.98;15.85;;;13.50;1.00;;;;;;4954315;29;20093;-60
2023/03/02 12:04:38;;;;;;;16.75;14.88;;;13.70;1.00;;;;;;4953682;29;20051;-60
2023/03/02 12:07:15;;;;;;;19.08;15.52;;;13.70;1.00;;;;;;4937336;29;20042;-60
2023/03/02 12:09:41;;;;;;;20.40;16.00;;;14.00;1.00;;;;;;4954753;29;20035;-60
2023/03/02 12:12:32;;;;;;;19.25;14.70;;;14.10;1.00;;;;;;4954359;29;20492;-63
2023/03/02 12:14:58;;;;;;;18.73;16.40;;;14.10;1.00;;;;;;4952869;29;20563;-60
2023/03/02 12:17:24;;;;;;;17.23;14.25;;;13.90;1.00;;;;;;4936688;29;20027;-60
2023/03/02 12:19:54;;;;;;;22.98;16.70;;;13.90;1.00;;;;;;4953966;29;20035;-60
2023/03/02 12:22:30;;;;;;;18.83;16.35;;;13.80;1.00;;;;;;4954559;29;20035;-60
2023/03/02 12:25:19;;;;;;;18.80;15.75;;;13.60;1.00;;;;;;4953711;29;20066;-60
2023/03/02 12:27:47;;;;;;;21.48;15.95;;;13.70;1.00;;;;;;4943400;29;20027;-60
2023/03/02 12:30:17;;;;;;;21.15;16.33;;;13.60;1.00;;;;;;4952510;29;20369;-60
2023/03/02 12:32:45;;;;;;;20.33;16.23;;;13.50;1.00;;;;;;4953911;29;20023;-60
2023/03/02 12:35:17;;;;;;;23.95;18.33;;;13.50;1.00;;;;;;4936920;29;20484;-60
2023/03/02 12:37:55;;;;;;;21.20;16.15;;;13.50;1.00;;;;;;4948648;28;20027;-60
2023/03/02 12:40:39;;;;;;;23.52;18.90;;;13.50;1.00;;;;;;4957835;29;20035;-60
2023/03/02 12:43:08;;;;;;;20.70;16.65;;;13.80;1.00;;;;;;4939356;29;20503;-57
2023/03/02 12:45:57;;;;;;;21.85;15.18;;;14.10;1.00;;;;;;4956163;29;20046;-59
2023/03/02 12:48:43;;;;;;;22.48;14.85;;;14.10;1.00;;;;;;4957233;29;20139;-60
2023/03/02 12:51:23;;;;;;;22.60;16.33;;;14.20;1.00;;;;;;4957620;29;20046;-60
2023/03/02 12:54:00;;;;;;;18.58;15.38;;;14.30;1.00;;;;;;4957840;29;20503;-60
2023/03/02 12:56:26;;;;;;;20.55;17.08;;;14.40;1.00;;;;;;4958001;29;20046;-60
2023/03/02 12:58:53;;;;;;;24.30;17.35;;;14.40;1.00;;;;;;4957492;29;20035;-60
2023/03/02 13:01:22;;;;;;;24.45;16.42;;;14.40;1.00;;;;;;4957700;29;20023;-60
2023/03/02 13:03:48;;;;;;;20.27;15.55;;;14.30;1.00;;;;;;4940027;29;20043;-60
2023/03/02 13:06:16;;;;;;;21.05;16.38;;;14.30;1.00;;;;;;4956228;29;20066;-60